Siam — SGIP — position and weather

sailwx.info

Track history (hours):
 
Tides and Currents Weather Stations Pressure Air Temp Water Temp Dewpoint Dewpoint Depression Visibility Wind Speed Wind Dir Waves Ship Positions

Siam

Last reported at 2017-Nov-19 12:30 UTC. Time now 2017-Nov-19 12:37 UTC.
Position N 56°02' E 012°37'.

Length 22 m.

Type: Passenger vessel. MMSI: 265572320.

Date/timePositionNaut miles runAvg speedWind from/ knotsBaromVisibWave heightAir tempDewpointWater temp
2017-Nov-19 12:30N 56°02' E 012°37'1 1.3
2017-Nov-19 12:00N 56°01' E 012°37'2 3.1
2017-Nov-19 11:30N 55°60' E 012°35'1 1.4
2017-Nov-19 11:00N 55°59' E 012°34'1 1.2
2017-Nov-19 10:29N 55°60' E 012°35'0 0.5
2017-Nov-19 09:59N 56°00' E 012°35'0 0.2
2017-Nov-19 09:30N 56°00' E 012°35'2 4.1
2017-Nov-19 09:00N 55°59' E 012°39'0 0.8
2017-Nov-19 08:30N 55°60' E 012°39'0 0.9
2017-Nov-19 08:00N 56°00' E 012°38'0 0.1
2017-Nov-19 07:29N 56°00' E 012°39'3 5.7
2017-Nov-19 07:00N 55°59' E 012°43'1 0.1
2017-Nov-18 22:53N 55°60' E 012°45'0 0.0
2017-Nov-18 19:32N 55°60' E 012°45'0 0.0
2017-Nov-18 19:23N 55°60' E 012°45'0 0.0
2017-Nov-18 18:53N 55°60' E 012°45'0 0.0
2017-Nov-18 18:23N 55°60' E 012°45'0 0.0
2017-Nov-18 17:11N 55°60' E 012°45'0 0.0
2017-Nov-18 16:59N 55°60' E 012°45'0 0.0
2017-Nov-18 16:11N 55°60' E 012°45'0 0.0
2017-Nov-18 16:00N 55°60' E 012°45'4 7.1
2017-Nov-18 15:30N 55°56' E 012°45'2 3.3
2017-Nov-18 14:57N 55°54' E 012°46'0 0.2
2017-Nov-18 14:30N 55°54' E 012°46'0 0.0
2017-Nov-18 13:58N 55°54' E 012°46'0 0.1
2017-Nov-18 13:29N 55°54' E 012°46'0 0.1
2017-Nov-18 12:49N 55°54' E 012°46'1 3.4
2017-Nov-18 12:30N 55°55' E 012°45'4 9.0
2017-Nov-18 12:01N 55°60' E 012°45'0 0.0
2017-Nov-18 11:31N 55°60' E 012°45'1 1.4
2017-Nov-18 11:00N 55°59' E 012°44'5 9.3
2017-Nov-18 10:30N 55°54' E 012°46'1 2.6
2017-Nov-18 10:00N 55°53' E 012°46'0 0.1
2017-Nov-18 09:25N 55°53' E 012°46'0 0.5
2017-Nov-18 09:00N 55°53' E 012°46'0 0.0
2017-Nov-18 08:30N 55°53' E 012°46'0 0.6
2017-Nov-18 07:58N 55°53' E 012°46'2 5.1
2017-Nov-18 07:30N 55°55' E 012°44'4 8.2
2017-Nov-18 06:58N 55°60' E 012°45'0 0.0
2017-Nov-18 06:25N 55°60' E 012°45'0 0.0
2017-Nov-18 05:55N 55°60' E 012°45'0 0.0
2017-Nov-18 05:10N 55°60' E 012°45'0 0.0
2017-Nov-18 04:58N 55°60' E 012°45'0 0.0
2017-Nov-18 04:19N 55°60' E 012°45'0 0.0
2017-Nov-18 03:58N 55°60' E 012°45'0 0.0
2017-Nov-18 03:28N 55°60' E 012°45'0 0.0
2017-Nov-18 02:43N 55°60' E 012°45'0 0.0
2017-Nov-18 02:16N 55°60' E 012°45'0 0.0
2017-Nov-18 01:52N 55°60' E 012°45'0 0.0
2017-Nov-18 01:16N 55°60' E 012°45'0 0.0
2017-Nov-18 00:58N 55°60' E 012°45'0 0.0
2017-Nov-18 00:28N 55°60' E 012°45'0 0.0
2017-Nov-17 23:58N 55°60' E 012°45'0 0.0
2017-Nov-17 23:25N 55°60' E 012°45'0 0.0
2017-Nov-17 22:58N 55°60' E 012°45'0 0.0
2017-Nov-17 22:19N 55°60' E 012°45'0 0.0
2017-Nov-17 21:58N 55°60' E 012°45'0 0.0
2017-Nov-17 21:13N 55°60' E 012°45'0 0.0
2017-Nov-17 20:55N 55°60' E 012°45'0 0.0
2017-Nov-17 20:04N 55°60' E 012°45'0 0.0
2017-Nov-17 19:52N 55°60' E 012°45'0 0.0
2017-Nov-17 18:55N 55°60' E 012°45'0 0.0
2017-Nov-17 18:28N 55°60' E 012°45'0 0.0
2017-Nov-17 17:58N 55°60' E 012°45'0 0.0
2017-Nov-17 17:28N 55°60' E 012°45'0 0.0
2017-Nov-17 16:58N 55°60' E 012°45'0 0.0
2017-Nov-17 16:22N 55°60' E 012°45'0 0.0
2017-Nov-17 15:49N 55°60' E 012°45'0 0.0
2017-Nov-17 15:28N 55°60' E 012°45'0 0.0
2017-Nov-17 14:58N 55°60' E 012°45'0 0.0
2017-Nov-17 14:16N 55°60' E 012°45'0 0.0
2017-Nov-17 13:58N 55°60' E 012°45'0 0.0
2017-Nov-17 13:25N 55°60' E 012°45'0 0.0
2017-Nov-17 12:58N 55°60' E 012°45'0 0.0
2017-Nov-17 12:28N 55°60' E 012°45'0 0.0
2017-Nov-17 11:58N 55°60' E 012°45'0 0.0
2017-Nov-17 11:28N 55°60' E 012°45'0 0.0
2017-Nov-17 10:55N 55°60' E 012°45'0 0.0
2017-Nov-17 10:25N 55°60' E 012°45'0 0.0
2017-Nov-17 09:49N 55°60' E 012°45'0 0.0
2017-Nov-17 09:28N 55°60' E 012°45'0 0.0
2017-Nov-17 08:58N 55°60' E 012°45'0 0.0
2017-Nov-17 08:28N 55°60' E 012°45'0 0.0
2017-Nov-17 07:58N 55°60' E 012°45'0 0.0
2017-Nov-17 07:22N 55°60' E 012°45'0 0.0
2017-Nov-17 06:55N 55°60' E 012°45'0 0.0
2017-Nov-17 06:28N 55°60' E 012°45'0 0.0
2017-Nov-17 05:58N 55°60' E 012°45'0 0.0
2017-Nov-17 05:19N 55°60' E 012°45'0 0.0
2017-Nov-17 04:55N 55°60' E 012°45'0 0.0
2017-Nov-17 04:22N 55°60' E 012°45'0 0.0
2017-Nov-17 03:58N 55°60' E 012°45'0 0.0
2017-Nov-17 03:28N 55°60' E 012°45'0 0.0
2017-Nov-17 02:58N 55°60' E 012°45'0 0.0
2017-Nov-17 02:25N 55°60' E 012°45'0 0.0
2017-Nov-17 01:58N 55°60' E 012°45'0 0.0
2017-Nov-17 01:25N 55°60' E 012°45'0 0.0
2017-Nov-17 00:59N 55°60' E 012°45'0 0.0
2017-Nov-17 00:26N 55°60' E 012°45'0 0.0
2017-Nov-16 23:59N 55°60' E 012°45'0 0.0
2017-Nov-16 23:29N 55°60' E 012°45'0 0.0
2017-Nov-16 22:59N 55°60' E 012°45'0 0.0
2017-Nov-16 22:29N 55°60' E 012°45'0 0.0
2017-Nov-16 21:44N 55°60' E 012°45'0 0.0
2017-Nov-16 21:29N 55°60' E 012°45'0 0.0
2017-Nov-16 20:56N 55°60' E 012°45'0 0.0
2017-Nov-16 20:29N 55°60' E 012°45'0 0.0
2017-Nov-16 19:59N 55°60' E 012°45'0 0.0
2017-Nov-16 19:23N 55°60' E 012°45'0 0.0
2017-Nov-16 18:59N 55°60' E 012°45'0 0.0
2017-Nov-16 18:29N 55°60' E 012°45'0 0.0
2017-Nov-16 17:59N 55°60' E 012°45'0 0.0
2017-Nov-16 17:29N 55°60' E 012°45'0 0.0
2017-Nov-16 16:59N 55°60' E 012°45'0 0.0
2017-Nov-16 16:29N 55°60' E 012°45'0 0.0
2017-Nov-16 15:59N 55°60' E 012°45'0 0.0
2017-Nov-16 15:29N 55°60' E 012°45'0 0.0
2017-Nov-16 14:59N 55°60' E 012°45'0 0.0
2017-Nov-16 14:29N 55°60' E 012°45'0 0.0
2017-Nov-16 13:59N 55°60' E 012°45'0 0.0
2017-Nov-16 13:23N 55°60' E 012°45'0 0.0
2017-Nov-16 12:56N 55°60' E 012°45'0 0.0
2017-Nov-16 12:23N 55°60' E 012°45'0 0.0
2017-Nov-16 11:59N 55°60' E 012°45'0 0.0
2017-Nov-16 11:29N 55°60' E 012°45'0 0.0
2017-Nov-16 10:59N 55°60' E 012°45'0 0.0
2017-Nov-16 10:26N 55°60' E 012°45'0 0.0
2017-Nov-16 09:56N 55°60' E 012°45'0 0.1
2017-Nov-16 09:29N 55°60' E 012°45'0 0.0
2017-Nov-16 08:59N 55°60' E 012°45'0 0.0
2017-Nov-16 08:23N 55°60' E 012°45'0 0.0
2017-Nov-16 07:56N 55°60' E 012°45'0 0.0
2017-Nov-16 07:26N 55°60' E 012°45'0 0.0
2017-Nov-16 06:41N 55°60' E 012°45'0 0.0
2017-Nov-16 06:20N 55°60' E 012°45'0 0.0
2017-Nov-16 05:59N 55°60' E 012°45'0 0.0
2017-Nov-16 05:29N 55°60' E 012°45'0 0.0
2017-Nov-16 04:59N 55°60' E 012°45'0 0.0
2017-Nov-16 04:29N 55°60' E 012°45'0 0.0
2017-Nov-16 03:59N 55°60' E 012°45'0 0.0
2017-Nov-16 03:29N 55°60' E 012°45'0 0.0
2017-Nov-16 02:59N 55°60' E 012°45'0 0.0
2017-Nov-16 02:29N 55°60' E 012°45'0 0.0
2017-Nov-16 01:59N 55°60' E 012°45'0 0.0
2017-Nov-16 01:29N 55°60' E 012°45'0 0.0
2017-Nov-16 00:59N 55°60' E 012°45'0 0.0
2017-Nov-16 00:29N 55°60' E 012°45'0 0.0
2017-Nov-15 23:59N 55°60' E 012°45'0 0.0
2017-Nov-15 23:29N 55°60' E 012°45'0 0.0
2017-Nov-15 22:56N 55°60' E 012°45'0 0.0
2017-Nov-15 22:29N 55°60' E 012°45'0 0.0
2017-Nov-14 16:47N 55°60' E 012°45'0 0.0
2017-Nov-14 14:53N 55°60' E 012°45'  
2017-Nov-12 05:35N 55°60' E 012°45'0 0.0
2017-Nov-12 05:11N 55°60' E 012°45'0 0.0
2017-Nov-12 04:53N 55°60' E 012°45'0 0.0
2017-Nov-12 04:23N 55°60' E 012°45'0 0.0
2017-Nov-11 23:44N 55°60' E 012°45'0 0.0
2017-Nov-11 23:17N 55°60' E 012°45'0 0.0
2017-Nov-11 22:59N 55°60' E 012°45'0 0.0
2017-Nov-11 22:29N 55°60' E 012°45'0 0.0
2017-Nov-11 21:56N 55°60' E 012°45'0 0.0
2017-Nov-11 21:29N 55°60' E 012°45'0 0.0
2017-Nov-11 20:56N 55°60' E 012°45'0 0.0
2017-Nov-11 20:20N 55°60' E 012°45'0 0.0
2017-Nov-11 19:56N 55°60' E 012°45'0 0.0
2017-Nov-11 19:26N 55°60' E 012°45'0 0.0
2017-Nov-11 18:59N 55°60' E 012°45'0 0.0
2017-Nov-11 18:29N 55°60' E 012°45'0 0.0
2017-Nov-11 17:59N 55°60' E 012°45'0 0.0
2017-Nov-11 17:08N 55°60' E 012°45'0 0.0
2017-Nov-11 16:59N 55°60' E 012°45'0 0.0
2017-Nov-11 16:08N 55°60' E 012°45'0 0.0
2017-Nov-11 15:41N 55°60' E 012°45'0 0.0
2017-Nov-11 15:30N 55°60' E 012°45'0 0.0
2017-Nov-11 14:44N 55°60' E 012°45'0 0.0
2017-Nov-11 14:26N 55°60' E 012°45'0 0.0
2017-Nov-11 14:00N 55°60' E 012°45'0 0.0
2017-Nov-11 13:24N 55°60' E 012°45'0 0.0
2017-Nov-11 12:57N 55°60' E 012°45'0 0.0
2017-Nov-11 12:30N 55°60' E 012°45'0 0.0
2017-Nov-11 12:00N 55°60' E 012°45'0 0.0
2017-Nov-11 11:30N 55°60' E 012°45'0 0.0
2017-Nov-11 11:00N 55°60' E 012°45'0 0.0
2017-Nov-11 10:27N 55°60' E 012°45'0 0.0
2017-Nov-11 10:00N 55°60' E 012°45'0 0.0
2017-Nov-11 09:30N 55°60' E 012°45'0 0.0
2017-Nov-11 09:00N 55°60' E 012°45'0 0.0
2017-Nov-11 08:21N 55°60' E 012°45'0 0.0
2017-Nov-11 07:42N 55°60' E 012°45'0 0.0
2017-Nov-11 07:27N 55°60' E 012°45'0 0.0
2017-Nov-11 06:51N 55°60' E 012°45'0 0.0
2017-Nov-11 06:24N 55°60' E 012°45'0 0.0
2017-Nov-11 05:54N 55°60' E 012°45'0 0.0
2017-Nov-11 05:21N 55°60' E 012°45'0 0.0
2017-Nov-11 05:00N 55°60' E 012°45'0 0.0
2017-Nov-11 04:24N 55°60' E 012°45'0 0.0
2017-Nov-11 03:57N 55°60' E 012°45'0 0.0
2017-Nov-11 03:24N 55°60' E 012°45'0 0.0
2017-Nov-11 03:00N 55°60' E 012°45'0 0.0
2017-Nov-11 02:27N 55°60' E 012°45'0 0.0
2017-Nov-11 02:00N 55°60' E 012°45'0 0.0
2017-Nov-11 01:30N 55°60' E 012°45'0 0.0
2017-Nov-11 01:00N 55°60' E 012°45'0 0.0
2017-Nov-11 00:27N 55°60' E 012°45'0 0.0
2017-Nov-11 00:00N 55°60' E 012°45'0 0.0
2017-Nov-10 23:27N 55°60' E 012°45'0 0.0
2017-Nov-10 22:48N 55°60' E 012°45'0 0.0
2017-Nov-10 22:27N 55°60' E 012°45'0 0.0
2017-Nov-10 22:00N 55°60' E 012°45'0 0.0
2017-Nov-10 21:24N 55°60' E 012°45'0 0.0
2017-Nov-10 20:57N 55°60' E 012°45'0 0.0
2017-Nov-10 20:30N 55°60' E 012°45'0 0.0
2017-Nov-10 13:09N 55°60' E 012°45'  
Track history (hours):
 
Tides and Currents Weather Stations Pressure Air Temp Water Temp Dewpoint Dewpoint Depression Visibility Wind Speed Wind Dir Waves Ship Positions

Siam

Last reported at 2017-Nov-19 12:30 UTC. Time now 2017-Nov-19 12:37 UTC.
Position N 56°02' E 012°37'.

Length 22 m.

Type: Passenger vessel. MMSI: 265572320.

Date/timePositionNaut miles runAvg speedWind from/ knotsBaromVisibWave heightAir tempDewpointWater temp
2017-Nov-19 12:30N 56°02' E 012°37'1 1.3
2017-Nov-19 12:00N 56°01' E 012°37'2 3.1
2017-Nov-19 11:30N 55°60' E 012°35'1 1.4
2017-Nov-19 11:00N 55°59' E 012°34'1 1.2
2017-Nov-19 10:29N 55°60' E 012°35'0 0.5
2017-Nov-19 09:59N 56°00' E 012°35'0 0.2
2017-Nov-19 09:30N 56°00' E 012°35'2 4.1
2017-Nov-19 09:00N 55°59' E 012°39'0 0.8
2017-Nov-19 08:30N 55°60' E 012°39'0 0.9
2017-Nov-19 08:00N 56°00' E 012°38'0 0.1
2017-Nov-19 07:29N 56°00' E 012°39'3 5.7
2017-Nov-19 07:00N 55°59' E 012°43'1 0.1
2017-Nov-18 22:53N 55°60' E 012°45'0 0.0
2017-Nov-18 19:32N 55°60' E 012°45'0 0.0
2017-Nov-18 19:23N 55°60' E 012°45'0 0.0
2017-Nov-18 18:53N 55°60' E 012°45'0 0.0
2017-Nov-18 18:23N 55°60' E 012°45'0 0.0
2017-Nov-18 17:11N 55°60' E 012°45'0 0.0
2017-Nov-18 16:59N 55°60' E 012°45'0 0.0
2017-Nov-18 16:11N 55°60' E 012°45'0 0.0
2017-Nov-18 16:00N 55°60' E 012°45'4 7.1
2017-Nov-18 15:30N 55°56' E 012°45'2 3.3
2017-Nov-18 14:57N 55°54' E 012°46'0 0.2
2017-Nov-18 14:30N 55°54' E 012°46'0 0.0
2017-Nov-18 13:58N 55°54' E 012°46'0 0.1
2017-Nov-18 13:29N 55°54' E 012°46'0 0.1
2017-Nov-18 12:49N 55°54' E 012°46'1 3.4
2017-Nov-18 12:30N 55°55' E 012°45'4 9.0
2017-Nov-18 12:01N 55°60' E 012°45'0 0.0
2017-Nov-18 11:31N 55°60' E 012°45'1 1.4
2017-Nov-18 11:00N 55°59' E 012°44'5 9.3
2017-Nov-18 10:30N 55°54' E 012°46'1 2.6
2017-Nov-18 10:00N 55°53' E 012°46'0 0.1
2017-Nov-18 09:25N 55°53' E 012°46'0 0.5
2017-Nov-18 09:00N 55°53' E 012°46'0 0.0
2017-Nov-18 08:30N 55°53' E 012°46'0 0.6
2017-Nov-18 07:58N 55°53' E 012°46'2 5.1
2017-Nov-18 07:30N 55°55' E 012°44'4 8.2
2017-Nov-18 06:58N 55°60' E 012°45'0 0.0
2017-Nov-18 06:25N 55°60' E 012°45'0 0.0
2017-Nov-18 05:55N 55°60' E 012°45'0 0.0
2017-Nov-18 05:10N 55°60' E 012°45'0 0.0
2017-Nov-18 04:58N 55°60' E 012°45'0 0.0
2017-Nov-18 04:19N 55°60' E 012°45'0 0.0
2017-Nov-18 03:58N 55°60' E 012°45'0 0.0
2017-Nov-18 03:28N 55°60' E 012°45'0 0.0
2017-Nov-18 02:43N 55°60' E 012°45'0 0.0
2017-Nov-18 02:16N 55°60' E 012°45'0 0.0
2017-Nov-18 01:52N 55°60' E 012°45'0 0.0
2017-Nov-18 01:16N 55°60' E 012°45'0 0.0
2017-Nov-18 00:58N 55°60' E 012°45'0 0.0
2017-Nov-18 00:28N 55°60' E 012°45'0 0.0
2017-Nov-17 23:58N 55°60' E 012°45'0 0.0
2017-Nov-17 23:25N 55°60' E 012°45'0 0.0
2017-Nov-17 22:58N 55°60' E 012°45'0 0.0
2017-Nov-17 22:19N 55°60' E 012°45'0 0.0
2017-Nov-17 21:58N 55°60' E 012°45'0 0.0
2017-Nov-17 21:13N 55°60' E 012°45'0 0.0
2017-Nov-17 20:55N 55°60' E 012°45'0 0.0
2017-Nov-17 20:04N 55°60' E 012°45'0 0.0
2017-Nov-17 19:52N 55°60' E 012°45'0 0.0
2017-Nov-17 18:55N 55°60' E 012°45'0 0.0
2017-Nov-17 18:28N 55°60' E 012°45'0 0.0
2017-Nov-17 17:58N 55°60' E 012°45'0 0.0
2017-Nov-17 17:28N 55°60' E 012°45'0 0.0
2017-Nov-17 16:58N 55°60' E 012°45'0 0.0
2017-Nov-17 16:22N 55°60' E 012°45'0 0.0
2017-Nov-17 15:49N 55°60' E 012°45'0 0.0
2017-Nov-17 15:28N 55°60' E 012°45'0 0.0
2017-Nov-17 14:58N 55°60' E 012°45'0 0.0
2017-Nov-17 14:16N 55°60' E 012°45'0 0.0
2017-Nov-17 13:58N 55°60' E 012°45'0 0.0
2017-Nov-17 13:25N 55°60' E 012°45'0 0.0
2017-Nov-17 12:58N 55°60' E 012°45'0 0.0
2017-Nov-17 12:28N 55°60' E 012°45'0 0.0
2017-Nov-17 11:58N 55°60' E 012°45'0 0.0
2017-Nov-17 11:28N 55°60' E 012°45'0 0.0
2017-Nov-17 10:55N 55°60' E 012°45'0 0.0
2017-Nov-17 10:25N 55°60' E 012°45'0 0.0
2017-Nov-17 09:49N 55°60' E 012°45'0 0.0
2017-Nov-17 09:28N 55°60' E 012°45'0 0.0
2017-Nov-17 08:58N 55°60' E 012°45'0 0.0
2017-Nov-17 08:28N 55°60' E 012°45'0 0.0
2017-Nov-17 07:58N 55°60' E 012°45'0 0.0
2017-Nov-17 07:22N 55°60' E 012°45'0 0.0
2017-Nov-17 06:55N 55°60' E 012°45'0 0.0
2017-Nov-17 06:28N 55°60' E 012°45'0 0.0
2017-Nov-17 05:58N 55°60' E 012°45'0 0.0
2017-Nov-17 05:19N 55°60' E 012°45'0 0.0
2017-Nov-17 04:55N 55°60' E 012°45'0 0.0
2017-Nov-17 04:22N 55°60' E 012°45'0 0.0
2017-Nov-17 03:58N 55°60' E 012°45'0 0.0
2017-Nov-17 03:28N 55°60' E 012°45'0 0.0
2017-Nov-17 02:58N 55°60' E 012°45'0 0.0
2017-Nov-17 02:25N 55°60' E 012°45'0 0.0
2017-Nov-17 01:58N 55°60' E 012°45'0 0.0
2017-Nov-17 01:25N 55°60' E 012°45'0 0.0
2017-Nov-17 00:59N 55°60' E 012°45'0 0.0
2017-Nov-17 00:26N 55°60' E 012°45'0 0.0
2017-Nov-16 23:59N 55°60' E 012°45'0 0.0
2017-Nov-16 23:29N 55°60' E 012°45'0 0.0
2017-Nov-16 22:59N 55°60' E 012°45'0 0.0
2017-Nov-16 22:29N 55°60' E 012°45'0 0.0
2017-Nov-16 21:44N 55°60' E 012°45'0 0.0
2017-Nov-16 21:29N 55°60' E 012°45'0 0.0
2017-Nov-16 20:56N 55°60' E 012°45'0 0.0
2017-Nov-16 20:29N 55°60' E 012°45'0 0.0
2017-Nov-16 19:59N 55°60' E 012°45'0 0.0
2017-Nov-16 19:23N 55°60' E 012°45'0 0.0
2017-Nov-16 18:59N 55°60' E 012°45'0 0.0
2017-Nov-16 18:29N 55°60' E 012°45'0 0.0
2017-Nov-16 17:59N 55°60' E 012°45'0 0.0
2017-Nov-16 17:29N 55°60' E 012°45'0 0.0
2017-Nov-16 16:59N 55°60' E 012°45'0 0.0
2017-Nov-16 16:29N 55°60' E 012°45'0 0.0
2017-Nov-16 15:59N 55°60' E 012°45'0 0.0
2017-Nov-16 15:29N 55°60' E 012°45'0 0.0
2017-Nov-16 14:59N 55°60' E 012°45'0 0.0
2017-Nov-16 14:29N 55°60' E 012°45'0 0.0
2017-Nov-16 13:59N 55°60' E 012°45'0 0.0
2017-Nov-16 13:23N 55°60' E 012°45'0 0.0
2017-Nov-16 12:56N 55°60' E 012°45'0 0.0
2017-Nov-16 12:23N 55°60' E 012°45'0 0.0
2017-Nov-16 11:59N 55°60' E 012°45'0 0.0
2017-Nov-16 11:29N 55°60' E 012°45'0 0.0
2017-Nov-16 10:59N 55°60' E 012°45'0 0.0
2017-Nov-16 10:26N 55°60' E 012°45'0 0.0
2017-Nov-16 09:56N 55°60' E 012°45'0 0.1
2017-Nov-16 09:29N 55°60' E 012°45'0 0.0
2017-Nov-16 08:59N 55°60' E 012°45'0 0.0
2017-Nov-16 08:23N 55°60' E 012°45'0 0.0
2017-Nov-16 07:56N 55°60' E 012°45'0 0.0
2017-Nov-16 07:26N 55°60' E 012°45'0 0.0
2017-Nov-16 06:41N 55°60' E 012°45'0 0.0
2017-Nov-16 06:20N 55°60' E 012°45'0 0.0
2017-Nov-16 05:59N 55°60' E 012°45'0 0.0
2017-Nov-16 05:29N 55°60' E 012°45'0 0.0
2017-Nov-16 04:59N 55°60' E 012°45'0 0.0
2017-Nov-16 04:29N 55°60' E 012°45'0 0.0
2017-Nov-16 03:59N 55°60' E 012°45'0 0.0
2017-Nov-16 03:29N 55°60' E 012°45'0 0.0
2017-Nov-16 02:59N 55°60' E 012°45'0 0.0
2017-Nov-16 02:29N 55°60' E 012°45'0 0.0
2017-Nov-16 01:59N 55°60' E 012°45'0 0.0
2017-Nov-16 01:29N 55°60' E 012°45'0 0.0
2017-Nov-16 00:59N 55°60' E 012°45'0 0.0
2017-Nov-16 00:29N 55°60' E 012°45'0 0.0
2017-Nov-15 23:59N 55°60' E 012°45'0 0.0
2017-Nov-15 23:29N 55°60' E 012°45'0 0.0
2017-Nov-15 22:56N 55°60' E 012°45'0 0.0
2017-Nov-15 22:29N 55°60' E 012°45'0 0.0
2017-Nov-14 16:47N 55°60' E 012°45'0 0.0
2017-Nov-14 14:53N 55°60' E 012°45'  
2017-Nov-12 05:35N 55°60' E 012°45'0 0.0
2017-Nov-12 05:11N 55°60' E 012°45'0 0.0
2017-Nov-12 04:53N 55°60' E 012°45'0 0.0
2017-Nov-12 04:23N 55°60' E 012°45'0 0.0
2017-Nov-11 23:44N 55°60' E 012°45'0 0.0
2017-Nov-11 23:17N 55°60' E 012°45'0 0.0
2017-Nov-11 22:59N 55°60' E 012°45'0 0.0
2017-Nov-11 22:29N 55°60' E 012°45'0 0.0
2017-Nov-11 21:56N 55°60' E 012°45'0 0.0
2017-Nov-11 21:29N 55°60' E 012°45'0 0.0
2017-Nov-11 20:56N 55°60' E 012°45'0 0.0
2017-Nov-11 20:20N 55°60' E 012°45'0 0.0
2017-Nov-11 19:56N 55°60' E 012°45'0 0.0
2017-Nov-11 19:26N 55°60' E 012°45'0 0.0
2017-Nov-11 18:59N 55°60' E 012°45'0 0.0
2017-Nov-11 18:29N 55°60' E 012°45'0 0.0
2017-Nov-11 17:59N 55°60' E 012°45'0 0.0
2017-Nov-11 17:08N 55°60' E 012°45'0 0.0
2017-Nov-11 16:59N 55°60' E 012°45'0 0.0
2017-Nov-11 16:08N 55°60' E 012°45'0 0.0
2017-Nov-11 15:41N 55°60' E 012°45'0 0.0
2017-Nov-11 15:30N 55°60' E 012°45'0 0.0
2017-Nov-11 14:44N 55°60' E 012°45'0 0.0
2017-Nov-11 14:26N 55°60' E 012°45'0 0.0
2017-Nov-11 14:00N 55°60' E 012°45'0 0.0
2017-Nov-11 13:24N 55°60' E 012°45'0 0.0
2017-Nov-11 12:57N 55°60' E 012°45'0 0.0
2017-Nov-11 12:30N 55°60' E 012°45'0 0.0
2017-Nov-11 12:00N 55°60' E 012°45'0 0.0
2017-Nov-11 11:30N 55°60' E 012°45'0 0.0
2017-Nov-11 11:00N 55°60' E 012°45'0 0.0
2017-Nov-11 10:27N 55°60' E 012°45'0 0.0
2017-Nov-11 10:00N 55°60' E 012°45'0 0.0
2017-Nov-11 09:30N 55°60' E 012°45'0 0.0
2017-Nov-11 09:00N 55°60' E 012°45'0 0.0
2017-Nov-11 08:21N 55°60' E 012°45'0 0.0
2017-Nov-11 07:42N 55°60' E 012°45'0 0.0
2017-Nov-11 07:27N 55°60' E 012°45'0 0.0
2017-Nov-11 06:51N 55°60' E 012°45'0 0.0
2017-Nov-11 06:24N 55°60' E 012°45'0 0.0
2017-Nov-11 05:54N 55°60' E 012°45'0 0.0
2017-Nov-11 05:21N 55°60' E 012°45'0 0.0
2017-Nov-11 05:00N 55°60' E 012°45'0 0.0
2017-Nov-11 04:24N 55°60' E 012°45'0 0.0
2017-Nov-11 03:57N 55°60' E 012°45'0 0.0
2017-Nov-11 03:24N 55°60' E 012°45'0 0.0
2017-Nov-11 03:00N 55°60' E 012°45'0 0.0
2017-Nov-11 02:27N 55°60' E 012°45'0 0.0
2017-Nov-11 02:00N 55°60' E 012°45'0 0.0
2017-Nov-11 01:30N 55°60' E 012°45'0 0.0
2017-Nov-11 01:00N 55°60' E 012°45'0 0.0
2017-Nov-11 00:27N 55°60' E 012°45'0 0.0
2017-Nov-11 00:00N 55°60' E 012°45'0 0.0
2017-Nov-10 23:27N 55°60' E 012°45'0 0.0
2017-Nov-10 22:48N 55°60' E 012°45'0 0.0
2017-Nov-10 22:27N 55°60' E 012°45'0 0.0
2017-Nov-10 22:00N 55°60' E 012°45'0 0.0
2017-Nov-10 21:24N 55°60' E 012°45'0 0.0
2017-Nov-10 20:57N 55°60' E 012°45'0 0.0
2017-Nov-10 20:30N 55°60' E 012°45'0 0.0
2017-Nov-10 13:09N 55°60' E 012°45'  

Dump ship's entire track history